Time;durP1;ratioP1;P1;durP2;ratioP2;P2;SDS_P1;SDS_P2;PMS_P1;PMS_P2;Temp;Humidity;BMP_temperature;BMP_pressure;BME280_temperature;BME280_humidity;BME280_pressure;Samples;Min_cycle;Max_cycle;Signal;HPM_P1;HPM_P2
2022/01/12 00:00:17;;;;;;;7.93;4.05;;;;;;;12.45;31.82;97000.16;5056427;28;20028;-30
2022/01/12 00:02:43;;;;;;;8.40;3.80;;;;;;;12.08;32.25;97000.59;5054875;28;21741;-29
2022/01/12 00:05:09;;;;;;;6.70;3.17;;;;;;;12.30;31.89;97001.66;5055441;28;20031;-30
2022/01/12 00:07:34;;;;;;;6.78;3.83;;;;;;;12.45;32.01;96993.94;5055659;28;20530;-29
2022/01/12 00:10:00;;;;;;;8.65;3.38;;;;;;;12.28;31.84;96990.44;5059808;28;20485;-29
2022/01/12 00:12:28;;;;;;;8.15;3.55;;;;;;;12.34;32.27;96986.03;5065239;28;20024;-29
2022/01/12 00:14:54;;;;;;;7.15;3.60;;;;;;;12.44;32.42;96976.09;5063945;28;20455;-29
2022/01/12 00:17:20;;;;;;;7.20;3.33;;;;;;;12.18;32.18;96969.69;5063624;28;20056;-29
2022/01/12 00:19:46;;;;;;;7.60;3.65;;;;;;;12.37;31.91;96970.78;5061910;28;20542;-31
2022/01/12 00:22:13;;;;;;;7.80;3.25;;;;;;;12.22;32.53;96959.50;5062065;28;20028;-29
2022/01/12 00:25:02;;;;;;;7.07;3.35;;;;;;;12.10;32.37;96952.78;5061693;28;20051;-30
2022/01/12 00:33:13;;;;;;;6.18;3.63;;;;;;;12.41;31.84;96949.72;5063702;28;20038;-29
2022/01/12 00:35:41;;;;;;;5.38;2.92;;;;;;;12.21;32.39;96963.41;5063724;28;20234;-29
2022/01/12 00:38:07;;;;;;;5.90;3.20;;;;;;;12.34;32.41;96956.13;5062186;28;20086;-29
2022/01/12 00:40:37;;;;;;;7.13;3.17;;;;;;;12.24;32.20;96967.97;5063170;28;20154;-29
2022/01/12 00:43:03;;;;;;;6.32;3.35;;;;;;;12.32;32.33;96955.00;5063406;28;20028;-29
2022/01/12 00:45:28;;;;;;;7.20;3.40;;;;;;;12.30;32.11;96941.81;5063811;28;21949;-29
2022/01/12 00:47:54;;;;;;;8.23;3.17;;;;;;;12.19;32.53;96906.72;5063566;28;20369;-29
2022/01/12 00:50:19;;;;;;;6.18;2.97;;;;;;;12.12;32.46;96914.28;5062304;28;20108;-29
2022/01/12 00:52:44;;;;;;;5.68;2.92;;;;;;;12.12;32.29;96917.00;5060473;28;20417;-30
2022/01/12 00:55:10;;;;;;;6.57;3.38;;;;;;;12.20;32.29;96908.25;5054746;28;20372;-30
2022/01/12 00:57:35;;;;;;;4.65;3.20;;;;;;;12.25;32.32;96934.16;5053981;28;20029;-29
2022/01/12 01:00:01;;;;;;;5.38;2.83;;;;;;;12.32;32.13;96928.56;5054149;28;20445;-29
2022/01/12 01:02:27;;;;;;;4.78;2.80;;;;;;;12.29;32.25;96928.66;5053344;28;20155;-30
2022/01/12 01:04:52;;;;;;;5.07;2.67;;;;;;;12.12;32.71;96928.63;5054446;28;20064;-30
2022/01/12 01:07:18;;;;;;;6.38;3.22;;;;;;;12.17;32.34;96927.38;5055542;28;20028;-30
2022/01/12 01:09:53;;;;;;;7.32;3.58;;;;;;;12.28;32.27;96930.59;5059890;28;20060;-29
2022/01/12 01:12:19;;;;;;;8.40;2.80;;;;;;;11.95;33.07;96934.50;5061202;28;20035;-29
2022/01/12 01:15:00;;;;;;;5.45;3.03;;;;;;;11.95;32.65;96929.81;5056609;28;20449;-29
2022/01/12 01:25:41;;;;;;;5.85;2.80;;;;;;;12.10;32.35;96935.69;5063381;28;20040;-29
2022/01/12 01:28:07;;;;;;;6.47;3.22;;;;;;;12.09;32.50;96931.44;5063538;28;20043;-30
2022/01/12 01:30:37;;;;;;;5.85;3.35;;;;;;;12.03;32.59;96935.84;5057927;28;20417;-29
2022/01/12 01:33:06;;;;;;;7.45;3.13;;;;;;;12.10;32.40;96928.31;5055827;28;20031;-30
2022/01/12 01:35:36;;;;;;;9.20;3.28;;;;;;;11.24;32.17;96925.09;5055331;28;20436;-30
2022/01/12 01:38:03;;;;;;;6.60;3.15;;;;;;;11.95;32.92;96918.19;5063214;28;20039;-29
2022/01/12 01:40:30;;;;;;;5.72;3.10;;;;;;;12.00;32.98;96932.03;5064068;28;20119;-29
2022/01/12 01:53:49;;;;;;;8.48;3.85;;;;;;;12.12;32.63;96898.72;5093217;28;20050;-29
2022/01/12 01:56:16;;;;;;;6.07;2.97;;;;;;;11.82;33.19;96899.81;5092954;28;20478;-30
2022/01/12 01:58:41;;;;;;;6.55;2.70;;;;;;;12.04;32.90;96907.47;5076278;28;20027;-29
2022/01/12 02:01:07;;;;;;;6.03;2.95;;;;;;;12.07;32.58;96882.94;5073195;28;20029;-31
2022/01/12 02:03:33;;;;;;;6.00;2.95;;;;;;;12.12;32.76;96906.88;5086970;28;20478;-30
2022/01/12 02:05:59;;;;;;;7.35;2.95;;;;;;;12.07;33.16;96884.88;5093372;28;20466;-30
2022/01/12 02:08:26;;;;;;;5.93;3.55;;;;;;;11.85;33.23;96882.69;5079070;28;20031;-29
2022/01/12 02:10:56;;;;;;;6.20;3.40;;;;;;;12.13;32.86;96877.75;5073032;28;20028;-29
2022/01/12 02:13:22;;;;;;;6.03;2.95;;;;;;;12.10;32.85;96881.31;5105577;28;20029;-29
2022/01/12 02:15:49;;;;;;;6.25;2.90;;;;;;;12.17;32.88;96873.00;5078793;28;20458;-30
2022/01/12 02:40:12;;;;;;;5.43;3.03;;;;;;;11.84;33.95;96859.41;5073197;28;20058;-30
2022/01/12 02:42:42;;;;;;;6.90;2.78;;;;;;;12.00;34.01;96874.94;5092897;28;20054;-29
2022/01/12 02:55:48;;;;;;;7.70;3.00;;;;;;;11.84;34.30;96886.56;5074613;28;20027;-30
2022/01/12 02:58:13;;;;;;;5.53;3.15;;;;;;;12.07;34.11;96895.75;5073672;28;20036;-31
2022/01/12 03:03:24;;;;;;;5.65;2.85;;;;;;;12.12;33.98;96876.97;5076345;28;20029;-29
2022/01/12 03:06:07;;;;;;;4.85;2.67;;;;;;;11.99;34.45;96861.78;5085551;28;20613;-30
2022/01/12 03:08:37;;;;;;;5.65;3.10;;;;;;;11.72;34.89;96870.91;5077478;28;20093;-29
2022/01/12 03:11:11;;;;;;;4.78;2.83;;;;;;;12.05;34.30;96869.00;5096416;28;20024;-29
2022/01/12 03:13:37;;;;;;;8.05;2.90;;;;;;;11.93;34.27;96883.28;5096573;28;20369;-29
2022/01/12 03:16:14;;;;;;;5.63;3.08;;;;;;;11.82;34.90;96866.44;5095688;28;20024;-29
2022/01/12 03:18:41;;;;;;;4.35;2.53;;;;;;;11.94;34.94;96860.34;5087593;28;20073;-29
2022/01/12 03:21:06;;;;;;;6.10;3.10;;;;;;;11.91;34.97;96884.88;5076008;28;20047;-29
2022/01/12 03:23:33;;;;;;;4.95;2.72;;;;;;;11.72;35.12;96868.19;5076537;28;20020;-30
2022/01/12 03:25:58;;;;;;;4.88;2.45;;;;;;;11.95;34.75;96883.63;5096079;28;20382;-29
2022/01/12 03:28:24;;;;;;;6.07;3.20;;;;;;;12.02;35.12;96879.94;5094621;28;20024;-29
2022/01/12 03:31:14;;;;;;;4.43;2.65;;;;;;;12.00;34.97;96876.88;5094960;28;20363;-30
2022/01/12 03:36:40;;;;;;;5.18;2.50;;;;;;;12.07;34.75;96874.00;5076802;28;20451;-29
2022/01/12 03:39:07;;;;;;;6.80;2.88;;;;;;;11.89;35.27;96885.28;5075533;28;20497;-30
2022/01/12 03:41:35;;;;;;;5.53;2.80;;;;;;;11.92;35.38;96867.38;5075796;28;20130;-30
2022/01/12 03:44:03;;;;;;;4.30;2.72;;;;;;;11.76;35.39;96881.72;5075693;28;20429;-30
2022/01/12 03:46:50;;;;;;;4.80;2.30;;;;;;;11.83;35.46;96878.84;5075581;28;20071;-29
2022/01/12 03:49:17;;;;;;;4.65;2.40;;;;;;;11.63;35.78;96878.09;5075625;28;20471;-30
2022/01/12 03:51:43;;;;;;;5.10;2.40;;;;;;;11.71;36.06;96866.66;5075827;28;20024;-29
2022/01/12 03:54:09;;;;;;;5.72;2.70;;;;;;;11.99;35.42;96859.06;5075478;28;20127;-29
2022/01/12 03:56:35;;;;;;;3.95;2.28;;;;;;;11.86;35.72;96873.34;5075361;28;20035;-30
2022/01/12 03:59:00;;;;;;;5.15;2.58;;;;;;;12.10;35.39;96875.88;5075185;28;20021;-30
2022/01/12 04:01:26;;;;;;;5.93;2.40;;;;;;;11.98;35.50;96873.84;5075461;28;20039;-30
2022/01/12 04:04:04;;;;;;;5.47;2.45;;;;;;;12.10;35.29;96890.25;5075160;28;20139;-30
2022/01/12 04:09:15;;;;;;;6.05;2.70;;;;;;;11.39;36.45;96893.75;5075331;28;20432;-29
2022/01/12 04:11:41;;;;;;;5.00;2.22;;;;;;;11.61;36.68;96899.50;5074548;28;20099;-30
2022/01/12 04:14:07;;;;;;;5.55;2.28;;;;;;;11.85;36.20;96898.22;5074624;28;20155;-29
2022/01/12 04:16:33;;;;;;;4.03;2.35;;;;;;;11.30;37.39;96907.13;5075158;28;20394;-29
2022/01/12 04:18:59;;;;;;;4.32;2.92;;;;;;;11.59;36.68;96905.34;5075167;28;20035;-29
2022/01/12 04:21:28;;;;;;;3.97;2.17;;;;;;;11.81;36.02;96908.41;5075147;28;20020;-29
2022/01/12 04:23:56;;;;;;;3.63;2.28;;;;;;;11.72;36.43;96919.81;5074715;28;20016;-30
2022/01/12 04:26:22;;;;;;;4.10;2.28;;;;;;;11.66;36.72;96924.22;5075037;28;20048;-29
2022/01/12 04:28:48;;;;;;;4.35;2.20;;;;;;;11.45;37.37;96932.81;5074755;28;20032;-29
2022/01/12 04:31:13;;;;;;;6.57;3.25;;;;;;;11.66;36.64;96921.50;5074825;28;20387;-28
2022/01/12 04:33:41;;;;;;;5.63;2.50;;;;;;;11.51;37.02;96934.59;5074799;28;20105;-29
2022/01/12 04:36:08;;;;;;;4.57;2.20;;;;;;;11.67;36.87;96936.59;5073592;28;20430;-30
2022/01/12 04:38:35;;;;;;;4.75;2.45;;;;;;;11.76;36.44;96933.34;5074448;28;20044;-29
2022/01/12 04:41:04;;;;;;;3.92;2.42;;;;;;;11.87;36.31;96952.88;5107152;28;20033;-29
2022/01/12 04:43:30;;;;;;;4.35;2.35;;;;;;;12.00;36.08;96959.19;5074563;28;20024;-29
2022/01/12 04:46:09;;;;;;;6.18;2.40;;;;;;;11.87;36.45;96953.66;5074642;28;20459;-29
2022/01/12 04:51:02;;;;;;;3.80;2.25;;;;;;;11.72;36.77;96960.56;5074537;28;20544;-29
2022/01/12 04:53:30;;;;;;;3.58;2.20;;;;;;;11.63;36.90;96973.94;5074238;28;20056;-30
2022/01/12 04:55:57;;;;;;;4.40;1.98;;;;;;;11.31;37.68;96955.59;5074155;28;20021;-30
2022/01/12 04:58:23;;;;;;;3.78;2.13;;;;;;;11.62;37.09;96977.84;5074352;28;20051;-29
2022/01/12 05:00:51;;;;;;;6.57;2.00;;;;;;;11.68;36.92;96972.69;5074190;28;20482;-29
2022/01/12 05:13:56;;;;;;;2.80;1.80;;;;;;;11.80;36.42;96980.22;5074115;28;20119;-29
2022/01/12 05:16:22;;;;;;;4.78;1.83;;;;;;;11.61;37.26;96991.88;5106556;28;20021;-29
2022/01/12 05:18:50;;;;;;;2.65;1.73;;;;;;;11.60;37.35;96991.09;5106386;28;20052;-29
2022/01/12 05:21:17;;;;;;;2.53;1.70;;;;;;;11.76;36.74;96993.13;5074016;28;20035;-29
2022/01/12 05:23:43;;;;;;;3.50;1.80;;;;;;;11.69;37.26;96999.44;5073489;28;20017;-29
2022/01/12 05:26:09;;;;;;;3.75;1.70;;;;;;;11.65;37.13;96995.25;5073685;28;20024;-30
2022/01/12 05:28:38;;;;;;;2.13;1.23;;;;;;;11.42;37.42;96987.97;5073519;28;20483;-29
2022/01/12 05:31:05;;;;;;;4.32;1.58;;;;;;;11.47;37.54;96995.63;5073471;28;20536;-29
2022/01/12 05:33:30;;;;;;;4.10;1.67;;;;;;;11.43;37.67;96992.97;5073801;28;20470;-29
2022/01/12 05:35:58;;;;;;;2.63;1.83;;;;;;;11.69;36.87;96994.00;5073455;28;20020;-29
2022/01/12 05:38:24;;;;;;;4.03;1.75;;;;;;;11.81;36.67;97000.78;5073440;28;20095;-29
2022/01/12 05:40:55;;;;;;;2.58;1.33;;;;;;;11.77;36.93;97000.09;5073533;28;20021;-31
2022/01/12 05:43:25;;;;;;;2.95;1.33;;;;;;;11.29;37.93;97004.09;5073308;28;20029;-30
2022/01/12 05:45:53;;;;;;;2.17;1.17;;;;;;;11.59;37.38;97000.44;5073469;28;20031;-29
2022/01/12 05:50:46;;;;;;;3.75;1.20;;;;;;;11.33;37.76;96996.66;5073231;28;20069;-29
2022/01/12 05:53:13;;;;;;;1.70;1.20;;;;;;;11.52;37.53;97006.00;5073173;28;20136;-29
2022/01/12 05:55:38;;;;;;;2.42;1.30;;;;;;;11.46;37.50;97010.41;5073224;28;20028;-29
2022/01/12 05:58:04;;;;;;;2.20;1.25;;;;;;;11.14;38.00;97014.44;5073383;28;20039;-29
2022/01/12 06:00:29;;;;;;;2.67;1.50;;;;;;;11.47;37.72;97003.78;5073112;28;20024;-29
2022/01/12 06:02:55;;;;;;;3.42;1.08;;;;;;;11.27;37.84;97011.13;5073170;28;20074;-29
2022/01/12 06:05:22;;;;;;;1.95;1.20;;;;;;;11.20;38.19;97014.00;5073274;28;20537;-29
2022/01/12 06:07:49;;;;;;;2.75;1.58;;;;;;;11.55;37.63;97007.88;5105513;28;20027;-29
2022/01/12 06:10:15;;;;;;;2.60;1.48;;;;;;;11.38;37.75;97023.31;5073178;28;20045;-29
2022/01/12 06:12:41;;;;;;;2.65;1.35;;;;;;;11.65;37.60;97031.34;5072843;28;20039;-29
2022/01/12 06:15:07;;;;;;;2.47;1.40;;;;;;;11.24;38.31;97029.03;5073071;28;20020;-30
2022/01/12 06:17:33;;;;;;;1.45;1.10;;;;;;;11.12;37.49;97025.00;5072963;28;20107;-29
2022/01/12 06:19:58;;;;;;;2.47;1.15;;;;;;;11.16;38.46;97030.34;5073004;28;20107;-29
2022/01/12 06:22:24;;;;;;;2.40;1.50;;;;;;;11.10;37.61;97042.88;5073360;28;20074;-30
2022/01/12 06:24:50;;;;;;;3.08;1.20;;;;;;;11.39;37.88;97053.97;5073186;28;20387;-29
2022/01/12 06:27:17;;;;;;;1.85;1.10;;;;;;;11.68;37.34;97049.53;5072964;28;20031;-29
2022/01/12 06:32:09;;;;;;;1.38;1.00;;;;;;;11.63;37.26;97066.31;5072897;28;20020;-29
2022/01/12 06:34:36;;;;;;;2.20;1.20;;;;;;;11.28;37.83;97070.44;5072879;28;20034;-29
2022/01/12 06:37:02;;;;;;;1.90;1.45;;;;;;;11.43;37.67;97071.75;5077720;28;20020;-29
2022/01/12 06:39:27;;;;;;;1.50;1.20;;;;;;;10.64;38.72;97087.00;5096211;28;20528;-29
2022/01/12 06:41:55;;;;;;;2.15;1.13;;;;;;;11.29;38.02;97090.22;5095183;28;20028;-29
2022/01/12 06:44:21;;;;;;;2.20;1.10;;;;;;;11.27;38.16;97084.44;5096793;28;20466;-30
2022/01/12 06:46:49;;;;;;;2.35;0.90;;;;;;;11.54;37.44;97082.41;5085314;28;20029;-29
2022/01/12 06:49:16;;;;;;;1.75;1.08;;;;;;;11.23;37.91;97098.09;5079834;28;20043;-29
2022/01/12 06:51:42;;;;;;;3.47;1.13;;;;;;;11.35;37.80;97104.88;5095091;28;20031;-30
2022/01/12 06:54:08;;;;;;;1.80;1.20;;;;;;;11.10;37.78;97108.78;5092727;28;20040;-30
2022/01/12 06:56:34;;;;;;;2.50;1.20;;;;;;;11.46;37.92;97100.03;5077725;28;20034;-30
2022/01/12 06:59:01;;;;;;;3.30;1.55;;;;;;;11.52;37.72;97120.06;5076357;28;20482;-29
2022/01/12 07:01:26;;;;;;;2.60;1.20;;;;;;;11.52;37.85;97095.63;5092142;28;20115;-29
2022/01/12 07:03:52;;;;;;;1.98;1.30;;;;;;;11.22;38.12;97084.94;5096621;28;20055;-29
2022/01/12 07:06:18;;;;;;;7.18;1.70;;;;;;;10.68;39.26;97091.22;5092043;28;20031;-29
2022/01/12 07:08:44;;;;;;;4.75;1.63;;;;;;;11.09;38.54;97096.38;5084257;28;20027;-29
2022/01/12 07:11:09;;;;;;;7.88;1.60;;;;;;;11.24;38.19;97088.00;5076210;28;20036;-29
2022/01/12 07:13:35;;;;;;;6.18;2.35;;;;;;;10.82;39.11;97098.38;5077265;28;20024;-29
2022/01/12 07:16:00;;;;;;;3.28;1.80;;;;;;;11.03;38.81;97103.44;5075995;28;20024;-29
2022/01/12 07:18:28;;;;;;;3.17;1.63;;;;;;;11.15;38.41;97091.22;5080044;28;20094;-29
2022/01/12 07:20:54;;;;;;;8.20;1.75;;;;;;;11.13;38.45;97107.94;5075682;28;20417;-29
2022/01/12 07:23:20;;;;;;;4.32;1.63;;;;;;;11.35;38.11;97118.47;5074009;28;20032;-29
2022/01/12 07:25:45;;;;;;;3.25;1.65;;;;;;;11.34;38.28;97122.34;5089880;28;20020;-29
2022/01/12 07:28:11;;;;;;;2.85;1.63;;;;;;;10.75;38.83;97123.69;5074322;28;20081;-30
2022/01/12 07:30:36;;;;;;;7.18;1.85;;;;;;;10.68;39.46;97112.91;5081123;28;20482;-29
2022/01/12 07:33:02;;;;;;;2.90;1.60;;;;;;;11.02;39.08;97153.47;5087766;28;20089;-30
2022/01/12 07:35:27;;;;;;;3.90;2.67;;;;;;;10.58;39.10;97161.88;5089821;28;20047;-30
2022/01/12 07:37:53;;;;;;;4.60;2.65;;;;;;;11.00;39.11;97161.25;5093784;28;20024;-28
2022/01/12 07:40:19;;;;;;;4.18;2.00;;;;;;;11.35;38.22;97172.78;5094147;28;20385;-29
2022/01/12 07:42:45;;;;;;;6.22;2.72;;;;;;;11.09;38.89;97175.09;5093498;28;20723;-29
2022/01/12 07:45:11;;;;;;;8.32;2.13;;;;;;;11.09;39.06;97180.53;5093788;28;20486;-29
2022/01/12 07:47:37;;;;;;;5.30;1.90;;;;;;;11.32;38.35;97198.03;5091673;28;20048;-30
2022/01/12 07:50:04;;;;;;;3.90;2.10;;;;;;;11.72;37.57;97204.34;5077541;28;20028;-30
2022/01/12 07:52:30;;;;;;;5.50;2.33;;;;;;;11.07;38.75;97199.19;5093592;28;20028;-29
2022/01/12 07:54:56;;;;;;;3.67;2.33;;;;;;;10.80;39.36;97220.09;5080394;28;20036;-29
2022/01/12 07:57:22;;;;;;;4.10;2.13;;;;;;;11.33;38.52;97219.34;5086504;28;20050;-29
2022/01/12 07:59:47;;;;;;;5.72;2.42;;;;;;;11.46;38.36;97231.16;5088448;28;20470;-30
2022/01/12 08:02:13;;;;;;;3.95;2.22;;;;;;;11.76;37.76;97224.09;5080461;28;20025;-30
2022/01/12 08:04:39;;;;;;;5.88;2.25;;;;;;;11.48;38.16;97220.66;5079322;28;20059;-29
2022/01/12 08:07:06;;;;;;;3.13;2.20;;;;;;;11.40;38.54;97243.66;5095264;28;20394;-29
2022/01/12 08:09:32;;;;;;;7.25;2.70;;;;;;;11.44;38.19;97249.06;5092874;28;20466;-29
2022/01/12 08:11:57;;;;;;;4.22;2.08;;;;;;;11.58;38.15;97254.25;5093272;28;20036;-29
2022/01/12 08:14:23;;;;;;;4.60;2.67;;;;;;;11.53;37.96;97260.16;5095381;28;20440;-29
2022/01/12 08:16:48;;;;;;;4.95;2.45;;;;;;;11.59;38.33;97260.47;5095511;28;20024;-29
2022/01/12 08:19:19;;;;;;;2.95;2.30;;;;;;;11.61;38.13;97268.97;5095019;28;20032;-29
2022/01/12 08:21:44;;;;;;;5.05;2.63;;;;;;;11.34;38.30;97285.28;5095286;28;20028;-29
2022/01/12 08:24:12;;;;;;;5.32;2.65;;;;;;;11.50;38.57;97279.97;5095067;28;20035;-30
2022/01/12 08:26:38;;;;;;;3.25;2.22;;;;;;;11.71;38.10;97278.91;5095160;28;20485;-29
2022/01/12 08:29:03;;;;;;;5.30;2.50;;;;;;;11.81;37.77;97299.72;5094941;28;20024;-29
2022/01/12 08:31:29;;;;;;;6.38;2.95;;;;;;;11.75;37.89;97299.41;5095426;28;20031;-29
2022/01/12 08:33:55;;;;;;;6.07;2.70;;;;;;;11.81;37.67;97295.06;5094767;28;20118;-29
2022/01/12 08:36:20;;;;;;;6.00;3.15;;;;;;;11.56;38.41;97324.53;5094875;28;20104;-30
2022/01/12 08:38:46;;;;;;;5.97;3.35;;;;;;;11.72;38.07;97335.56;5094504;28;20416;-29
2022/01/12 08:41:12;;;;;;;7.50;2.60;;;;;;;11.70;37.95;97326.28;5094232;28;20031;-29
2022/01/12 08:43:37;;;;;;;8.15;2.60;;;;;;;11.78;37.82;97352.19;5094658;28;20028;-29
2022/01/12 08:46:03;;;;;;;6.10;2.85;;;;;;;11.59;38.54;97340.03;5094536;28;20390;-29
2022/01/12 08:48:28;;;;;;;5.10;2.88;;;;;;;11.84;38.12;97336.97;5094586;28;20024;-29
2022/01/12 08:50:54;;;;;;;7.78;2.92;;;;;;;11.81;37.93;97352.13;5094490;28;20035;-30
2022/01/12 08:53:20;;;;;;;7.32;2.88;;;;;;;11.57;38.58;97344.31;5094274;28;20101;-29
2022/01/12 08:55:46;;;;;;;5.40;2.88;;;;;;;11.26;39.40;97366.06;5094690;28;20032;-29
2022/01/12 08:58:11;;;;;;;5.03;2.90;;;;;;;11.72;38.54;97362.72;5093784;28;20070;-29
2022/01/12 09:00:37;;;;;;;6.00;2.53;;;;;;;11.63;38.94;97342.66;5094260;28;20026;-29
2022/01/12 09:03:02;;;;;;;5.60;2.90;;;;;;;11.54;38.90;97359.50;5092263;28;20024;-30
2022/01/12 09:05:29;;;;;;;8.50;3.00;;;;;;;11.56;38.90;97354.41;5092304;28;20474;-29
2022/01/12 09:07:55;;;;;;;6.75;3.17;;;;;;;11.67;38.98;97349.59;5095850;28;20027;-29
2022/01/12 09:10:21;;;;;;;6.78;3.10;;;;;;;11.76;38.87;97343.66;5108020;28;20023;-29
2022/01/12 09:12:47;;;;;;;6.28;2.83;;;;;;;11.94;38.34;97341.47;5094288;28;20024;-30
2022/01/12 09:15:13;;;;;;;6.97;3.20;;;;;;;11.82;38.70;97353.69;5092008;28;20573;-29
2022/01/12 09:17:39;;;;;;;7.60;3.15;;;;;;;11.73;38.83;97355.34;5091411;28;20043;-29
2022/01/12 09:20:07;;;;;;;6.57;3.20;;;;;;;11.80;38.73;97358.75;5092036;28;20024;-29
2022/01/12 09:22:33;;;;;;;6.80;3.25;;;;;;;11.57;38.90;97358.69;5091757;28;20108;-29
2022/01/12 09:24:58;;;;;;;8.07;3.08;;;;;;;11.46;39.40;97360.78;5089659;28;20032;-30
2022/01/12 09:27:24;;;;;;;6.88;2.97;;;;;;;11.55;39.38;97379.28;5091329;28;20020;-29
2022/01/12 09:29:49;;;;;;;5.80;2.88;;;;;;;11.77;39.11;97380.53;5090614;28;20032;-29
2022/01/12 09:32:15;;;;;;;6.80;3.28;;;;;;;11.80;38.63;97377.78;5091060;28;20039;-30
2022/01/12 09:34:41;;;;;;;6.07;3.10;;;;;;;11.73;39.06;97379.81;5091727;28;20081;-31
2022/01/12 09:37:06;;;;;;;9.00;3.78;;;;;;;11.86;38.47;97392.44;5091571;28;20666;-29
2022/01/12 09:39:34;;;;;;;6.97;3.45;;;;;;;11.88;38.63;97408.31;5091307;28;20359;-29
2022/01/12 09:42:00;;;;;;;5.32;3.05;;;;;;;11.79;38.78;97397.97;5091135;28;20039;-29
2022/01/12 09:44:31;;;;;;;10.90;3.60;;;;;;;11.88;38.54;97398.22;5091503;28;20056;-29
2022/01/12 09:46:59;;;;;;;6.88;3.63;;;;;;;11.89;38.81;97412.59;5091596;28;20045;-30
2022/01/12 09:49:24;;;;;;;6.53;3.47;;;;;;;11.23;39.30;97404.91;5091437;28;20020;-29
2022/01/12 09:51:51;;;;;;;6.85;3.67;;;;;;;11.30;40.12;97390.47;5090059;28;20028;-30
2022/01/12 09:54:18;;;;;;;8.82;4.10;;;;;;;11.60;39.14;97404.06;5091179;28;20040;-29
2022/01/12 09:56:44;;;;;;;7.10;3.60;;;;;;;11.70;38.86;97396.94;5091406;28;20024;-29
2022/01/12 09:59:09;;;;;;;5.60;3.50;;;;;;;11.73;38.85;97377.09;5090876;28;20028;-29
2022/01/12 10:01:39;;;;;;;8.27;3.75;;;;;;;11.64;39.41;97377.59;5090829;28;20028;-28
2022/01/12 10:04:16;;;;;;;7.35;4.20;;;;;;;11.18;39.97;97375.50;5095785;28;20024;-30
2022/01/12 10:06:48;;;;;;;8.68;3.78;;;;;;;11.24;39.83;97343.22;5091372;28;20081;-29
2022/01/12 10:09:15;;;;;;;10.25;3.63;;;;;;;11.24;40.07;97343.22;5091195;28;20454;-28
2022/01/12 10:12:04;;;;;;;8.63;3.65;;;;;;;11.33;39.96;97343.50;5090249;28;20063;-29
2022/01/12 10:14:50;;;;;;;8.02;4.30;;;;;;;10.90;41.03;97333.16;5090425;28;20126;-30
2022/01/12 10:17:18;;;;;;;6.22;3.28;;;;;;;11.40;39.90;97332.53;5090611;28;20038;-30
2022/01/12 10:19:45;;;;;;;8.50;3.47;;;;;;;11.51;39.91;97352.91;5091320;28;20383;-29
2022/01/12 10:22:14;;;;;;;5.35;3.22;;;;;;;11.92;39.04;97349.25;5090552;28;20053;-29
2022/01/12 10:24:45;;;;;;;9.27;4.20;;;;;;;11.46;40.03;97347.19;5088990;28;20081;-29
2022/01/12 10:27:17;;;;;;;6.97;3.38;;;;;;;11.44;40.18;97341.41;5090810;28;20028;-30
2022/01/12 10:29:45;;;;;;;6.30;3.22;;;;;;;11.73;39.73;97364.28;5090474;28;20035;-29
2022/01/12 10:32:15;;;;;;;6.07;3.30;;;;;;;11.98;39.03;97374.03;5090797;28;20481;-29
2022/01/12 10:34:44;;;;;;;9.68;3.55;;;;;;;11.77;39.28;97354.13;5090951;28;20028;-30
2022/01/12 10:37:13;;;;;;;8.38;3.65;;;;;;;11.56;40.08;97357.13;5090463;28;20510;-29
2022/01/12 10:39:45;;;;;;;6.47;3.05;;;;;;;10.42;41.97;97369.34;5090395;28;20034;-30
2022/01/12 10:42:13;;;;;;;8.88;3.65;;;;;;;10.89;41.18;97375.03;5090462;28;20036;-29
2022/01/12 10:44:43;;;;;;;9.70;3.70;;;;;;;10.79;41.63;97362.38;5090676;28;20036;-29
2022/01/12 10:47:11;;;;;;;7.45;3.30;;;;;;;10.54;42.43;97354.50;5090786;28;20425;-29
2022/01/12 10:49:54;;;;;;;6.85;3.35;;;;;;;10.82;41.59;97356.13;5091088;28;20113;-29
2022/01/12 10:52:20;;;;;;;8.50;3.40;;;;;;;10.85;41.76;97365.41;5090602;28;20020;-29
2022/01/12 10:55:02;;;;;;;8.60;3.40;;;;;;;10.70;41.71;97356.66;5090757;28;20055;-29
2022/01/12 10:57:33;;;;;;;9.38;3.75;;;;;;;10.45;42.65;97362.34;5092864;28;20020;-29
2022/01/12 11:00:00;;;;;;;5.72;2.97;;;;;;;11.03;41.35;97368.69;5091773;28;20020;-29
2022/01/12 11:02:28;;;;;;;9.68;4.05;;;;;;;9.93;43.88;97361.59;5092755;28;20185;-31
2022/01/12 11:04:56;;;;;;;7.32;4.20;;;;;;;10.44;42.79;97361.56;5092807;28;20367;-31
2022/01/12 11:07:23;;;;;;;8.65;3.58;;;;;;;10.31;42.81;97376.81;5092765;28;20029;-31
2022/01/12 11:09:50;;;;;;;10.15;3.60;;;;;;;10.50;42.57;97374.72;5092896;28;20133;-31
2022/01/12 11:12:16;;;;;;;9.05;3.97;;;;;;;10.87;41.46;97380.13;5092636;28;20042;-31
2022/01/12 11:14:43;;;;;;;7.28;3.60;;;;;;;11.20;40.97;97397.56;5092572;28;20099;-31
2022/01/12 11:17:08;;;;;;;9.15;3.65;;;;;;;11.20;40.88;97407.66;5092584;28;20115;-30
2022/01/12 11:19:36;;;;;;;6.32;3.60;;;;;;;11.51;40.36;97418.13;5092611;28;20113;-31
2022/01/12 11:22:34;;;;;;;7.10;3.42;;;;;;;11.45;40.57;97414.34;5094351;28;20446;-31
2022/01/12 11:24:59;;;;;;;8.60;3.25;;;;;;;11.11;41.08;97405.44;5096600;28;20024;-31
2022/01/12 11:27:25;;;;;;;7.88;3.63;;;;;;;11.34;40.90;97412.94;5096511;28;20119;-31
2022/01/12 11:29:50;;;;;;;5.43;2.97;;;;;;;11.16;41.34;97416.63;5096487;28;20016;-32
2022/01/12 11:32:23;;;;;;;7.60;3.30;;;;;;;11.15;41.11;97415.06;5096227;28;20355;-30
2022/01/12 11:35:02;;;;;;;7.33;3.80;;;;;;;11.34;40.82;97410.22;5096114;28;20020;-31
2022/01/12 11:37:28;;;;;;;5.10;3.20;;;;;;;11.32;40.88;97409.84;5095881;28;20020;-31
2022/01/12 11:39:53;;;;;;;9.25;3.53;;;;;;;11.51;40.40;97409.19;5096049;28;20027;-31
2022/01/12 11:42:19;;;;;;;8.77;3.78;;;;;;;11.41;40.63;97410.88;5095869;28;20034;-31
2022/01/12 11:44:45;;;;;;;7.93;2.92;;;;;;;10.92;41.83;97430.47;5095927;28;20032;-31
2022/01/12 11:47:21;;;;;;;7.47;3.50;;;;;;;11.17;41.34;97406.53;5094569;28;20019;-31
2022/01/12 11:49:52;;;;;;;8.10;3.40;;;;;;;11.19;41.30;97422.41;5095818;28;20107;-31
2022/01/12 11:52:26;;;;;;;6.70;3.47;;;;;;;11.08;41.72;97420.59;5096208;28;20069;-31
2022/01/12 11:55:06;;;;;;;6.68;2.60;;;;;;;10.73;42.62;97427.19;5094418;28;20039;-31
2022/01/12 11:57:35;;;;;;;6.43;3.15;;;;;;;11.13;41.57;97425.56;5095592;28;20073;-31
2022/01/12 12:00:27;;;;;;;4.78;2.78;;;;;;;10.72;42.44;97428.34;5093548;28;20037;-31
2022/01/12 12:02:52;;;;;;;6.05;3.20;;;;;;;11.04;41.83;97470.66;5095464;28;20028;-31
2022/01/12 12:05:17;;;;;;;5.05;2.95;;;;;;;11.42;41.12;97455.09;5095664;28;20035;-30
2022/01/12 12:07:52;;;;;;;7.55;3.83;;;;;;;10.87;42.19;97447.97;5095274;28;20046;-30
2022/01/12 12:10:22;;;;;;;10.82;3.67;;;;;;;11.20;41.66;97437.53;5095473;28;20028;-33
2022/01/12 12:12:50;;;;;;;8.07;3.17;;;;;;;10.97;41.92;97432.75;5095276;28;20055;-31
2022/01/12 12:15:16;;;;;;;7.60;3.00;;;;;;;10.81;42.56;97417.00;5095636;28;20497;-30
2022/01/12 12:17:43;;;;;;;7.38;3.25;;;;;;;10.91;42.35;97429.69;5095187;28;20052;-31
2022/01/12 12:20:14;;;;;;;6.13;3.20;;;;;;;10.45;43.55;97397.59;5095410;28;20050;-31
2022/01/12 12:22:42;;;;;;;9.10;3.38;;;;;;;10.40;43.35;97403.44;5095423;28;20016;-30
2022/01/12 12:25:11;;;;;;;5.90;2.85;;;;;;;10.75;42.71;97399.66;5095288;28;20027;-31
2022/01/12 12:27:40;;;;;;;5.72;2.65;;;;;;;10.52;43.12;97392.09;5094975;28;20065;-31
2022/01/12 12:30:17;;;;;;;7.15;2.95;;;;;;;10.74;43.16;97382.59;5095008;28;20081;-31
2022/01/12 12:32:48;;;;;;;5.50;3.35;;;;;;;10.48;43.56;97385.94;5093251;28;20054;-31
2022/01/12 12:35:18;;;;;;;4.47;2.90;;;;;;;10.88;42.65;97376.22;5094793;28;20063;-31
2022/01/12 12:37:47;;;;;;;7.60;3.40;;;;;;;11.32;41.74;97377.25;5095137;28;20020;-31
2022/01/12 12:40:22;;;;;;;6.38;2.97;;;;;;;11.30;41.54;97391.25;5094910;28;20051;-31
2022/01/12 12:42:50;;;;;;;6.15;3.17;;;;;;;10.55;43.50;97409.50;5094977;28;20032;-31
2022/01/12 12:45:15;;;;;;;9.65;3.60;;;;;;;10.69;43.13;97421.00;5094978;28;20028;-31
2022/01/12 12:47:43;;;;;;;6.20;2.75;;;;;;;11.51;41.35;97422.78;5093374;28;20065;-31
2022/01/12 12:50:12;;;;;;;6.22;3.05;;;;;;;11.32;41.84;97445.91;5094610;28;20024;-31
2022/01/12 12:52:39;;;;;;;6.30;3.13;;;;;;;11.18;42.18;97442.59;5092824;28;20031;-30
2022/01/12 12:55:11;;;;;;;7.93;3.05;;;;;;;11.31;41.72;97441.66;5094609;28;20027;-31
2022/01/12 12:57:46;;;;;;;6.40;3.10;;;;;;;11.27;41.75;97440.16;5094607;28;20382;-31
2022/01/12 13:00:18;;;;;;;6.57;3.33;;;;;;;11.11;42.32;97425.22;5094300;28;20039;-31